createdAt,value
2016-06-17T00:00:03.666Z,0
2016-06-17T00:01:03.686Z,0
2016-06-17T00:02:03.704Z,0
2016-06-17T00:03:03.739Z,0
2016-06-17T00:04:03.774Z,0
2016-06-17T00:05:03.794Z,0
2016-06-17T00:06:03.672Z,0
2016-06-17T00:07:03.706Z,0
2016-06-17T00:08:03.710Z,0
2016-06-17T00:09:03.932Z,0
2016-06-17T00:10:03.764Z,0
2016-06-17T00:11:03.798Z,0
2016-06-17T00:12:03.989Z,0
2016-06-17T00:13:03.867Z,0
2016-06-17T00:14:04.027Z,0
2016-06-17T00:15:04.062Z,0
2016-06-17T00:16:04.082Z,0
2016-06-17T00:17:03.960Z,0
2016-06-17T00:18:04.009Z,0
2016-06-17T00:19:04.029Z,0
2016-06-17T00:20:04.204Z,0
2016-06-17T00:21:04.083Z,0
2016-06-17T00:22:04.242Z,0
2016-06-17T00:23:04.262Z,0
2016-06-17T00:24:04.140Z,0
2016-06-17T00:25:04.316Z,0
2016-06-17T00:26:04.334Z,0
2016-06-17T00:27:04.370Z,0
2016-06-17T00:28:04.373Z,0
2016-06-17T00:29:04.422Z,0
2016-06-17T00:30:04.458Z,0
2016-06-17T00:31:04.492Z,0
2016-06-17T00:32:04.340Z,0
2016-06-17T00:33:04.218Z,0
2016-06-17T00:34:04.550Z,0
2016-06-17T00:35:04.443Z,0
2016-06-17T00:36:04.619Z,0
2016-06-17T00:37:04.638Z,0
2016-06-17T00:38:04.517Z,0
2016-06-17T00:39:04.676Z,0
2016-06-17T00:40:04.570Z,0
2016-06-17T00:41:04.777Z,0
2016-06-17T00:42:04.625Z,0
2016-06-17T00:43:04.800Z,0
2016-06-17T00:44:04.678Z,0
2016-06-17T00:45:04.681Z,0
2016-06-17T00:46:04.263Z,0
2016-06-17T00:47:04.907Z,0
2016-06-17T00:48:04.973Z,0
2016-06-17T00:49:04.960Z,0
2016-06-17T00:50:04.823Z,0
2016-06-17T00:51:04.857Z,0
2016-06-17T00:52:04.860Z,0
2016-06-17T00:53:05.066Z,0
2016-06-17T00:54:05.085Z,0
2016-06-17T00:55:04.947Z,0
2016-06-17T00:56:05.122Z,0
2016-06-17T00:57:05.157Z,0
2016-06-17T00:58:05.035Z,0
2016-06-17T00:59:05.227Z,0
2016-06-17T01:00:04.933Z,0
2016-06-17T01:01:05.264Z,0
2016-06-17T01:02:05.158Z,0
2016-06-17T01:03:05.177Z,0
2016-06-17T01:04:05.196Z,0
2016-06-17T01:05:05.215Z,0
2016-06-17T01:06:05.391Z,0
2016-06-17T01:07:05.269Z,0
2016-06-17T01:08:05.445Z,0
2016-06-17T01:09:05.479Z,0
2016-06-17T01:10:05.498Z,0
2016-06-17T01:11:05.518Z,0
2016-06-17T01:12:05.536Z,0
2016-06-17T01:13:05.570Z,0
2016-06-17T01:14:05.449Z,0
2016-06-17T01:15:05.657Z,0
2016-06-17T01:16:05.644Z,0
2016-06-17T01:17:05.694Z,0
2016-06-17T01:18:05.557Z,0
2016-06-17T01:19:05.576Z,0
2016-06-17T01:20:05.595Z,0
2016-06-17T01:21:05.771Z,0
2016-06-17T01:22:05.648Z,0
2016-06-17T01:23:05.841Z,0
2016-06-17T01:24:05.858Z,0
2016-06-17T01:25:05.753Z,0
2016-06-17T01:26:05.913Z,0
2016-06-17T01:27:05.791Z,0
2016-06-17T01:28:05.966Z,0
2016-06-17T01:29:05.830Z,0
2016-06-17T01:30:06.020Z,0
2016-06-17T01:31:06.071Z,0
2016-06-17T01:32:06.075Z,0
2016-06-17T01:33:06.108Z,0
2016-06-17T01:34:06.128Z,0
2016-06-17T01:35:05.991Z,0
2016-06-17T01:36:06.073Z,0
2016-06-17T01:37:06.201Z,0
2016-06-17T01:38:06.237Z,0
2016-06-17T01:39:06.254Z,0
2016-06-17T01:40:06.305Z,0
2016-06-17T01:41:06.309Z,0
2016-06-17T01:42:06.187Z,0
2016-06-17T01:43:06.207Z,0
2016-06-17T01:44:06.241Z,0
2016-06-17T01:45:06.260Z,0
2016-06-17T01:46:06.139Z,0
2016-06-17T01:47:06.330Z,0
2016-06-17T01:48:06.348Z,0
2016-06-17T01:49:06.555Z,0
2016-06-17T01:50:06.559Z,0
2016-06-17T01:51:06.406Z,0
2016-06-17T01:52:06.597Z,0
2016-06-17T01:53:06.459Z,0
2016-06-17T01:54:06.650Z,0
2016-06-17T01:55:06.529Z,0
2016-06-17T01:56:06.566Z,0
2016-06-17T01:57:06.602Z,0
2016-06-17T01:58:06.763Z,0
2016-06-17T01:59:06.783Z,0
2016-06-17T02:00:06.663Z,0
2016-06-17T02:01:06.839Z,0
2016-06-17T02:02:06.890Z,0
2016-06-17T02:03:06.910Z,0
2016-06-17T02:04:06.772Z,0
2016-06-17T02:05:06.948Z,0
2016-06-17T02:06:06.983Z,0
2016-06-17T02:07:06.862Z,0
2016-06-17T02:08:07.038Z,0
2016-06-17T02:09:07.057Z,0
2016-06-17T02:10:07.092Z,0
2016-06-17T02:11:07.127Z,0
2016-06-17T02:12:07.131Z,0
2016-06-17T02:13:07.008Z,0
2016-06-17T02:14:07.028Z,0
2016-06-17T02:15:07.062Z,0
2016-06-17T02:16:06.800Z,0
2016-06-17T02:17:07.133Z,0
2016-06-17T02:18:07.307Z,0
2016-06-17T02:19:07.217Z,0
2016-06-17T02:20:07.361Z,0
2016-06-17T02:21:07.084Z,0
2016-06-17T02:22:07.242Z,0
2016-06-17T02:23:07.262Z,0
2016-06-17T02:24:07.297Z,0
2016-06-17T02:25:07.472Z,0
2016-06-17T02:26:07.507Z,0
2016-06-17T02:27:07.371Z,0
2016-06-17T02:28:07.560Z,0
2016-06-17T02:29:07.627Z,0
2016-06-17T02:30:07.459Z,0
2016-06-17T02:31:07.509Z,0
2016-06-17T02:32:07.653Z,0
2016-06-17T02:33:07.530Z,0
2016-06-17T02:34:07.737Z,0
2016-06-17T02:35:07.741Z,0
2016-06-17T02:36:07.324Z,0
2016-06-17T02:37:07.779Z,0
2016-06-17T02:38:07.658Z,0
2016-06-17T02:39:07.849Z,0
2016-06-17T02:40:07.868Z,0
2016-06-17T02:41:07.887Z,0
2016-06-17T02:42:07.922Z,0
2016-06-17T02:43:07.784Z,0
2016-06-17T02:44:07.819Z,0
2016-06-17T02:45:08.011Z,0
2016-06-17T02:46:07.717Z,0
2016-06-17T02:47:07.892Z,0
2016-06-17T02:48:08.068Z,0
2016-06-17T02:49:07.789Z,0
2016-06-17T02:50:08.137Z,0
2016-06-17T02:51:08.156Z,0
2016-06-17T02:52:08.221Z,0
2016-06-17T02:53:08.210Z,0
2016-06-17T02:54:08.245Z,0
2016-06-17T02:55:08.264Z,0
2016-06-17T02:56:08.282Z,0
2016-06-17T02:57:08.317Z,0
2016-06-17T02:58:08.336Z,0
2016-06-17T02:59:08.215Z,0
2016-06-17T03:00:08.249Z,0
2016-06-17T03:01:08.113Z,0
2016-06-17T03:02:07.975Z,0
2016-06-17T03:03:08.323Z,0
2016-06-17T03:04:08.029Z,0
2016-06-17T03:05:08.533Z,0
2016-06-17T03:06:08.567Z,0
2016-06-17T03:07:08.430Z,0
2016-06-17T03:08:08.605Z,0
2016-06-17T03:09:08.624Z,0
2016-06-17T03:10:08.503Z,0
2016-06-17T03:11:08.678Z,0
2016-06-17T03:12:08.698Z,0
2016-06-17T03:13:08.716Z,0
2016-06-17T03:14:08.767Z,0
2016-06-17T03:15:08.645Z,0
2016-06-17T03:16:08.821Z,0
2016-06-17T03:17:08.683Z,0
2016-06-17T03:18:08.702Z,0
2016-06-17T03:19:08.472Z,0
2016-06-17T03:20:08.756Z,0
2016-06-17T03:21:08.963Z,0
2016-06-17T03:22:08.842Z,0
2016-06-17T03:23:08.845Z,0
2016-06-17T03:24:09.035Z,0
2016-06-17T03:25:09.055Z,0
2016-06-17T03:26:09.074Z,0
2016-06-17T03:27:09.109Z,0
2016-06-17T03:28:09.128Z,0
2016-06-17T03:29:09.163Z,0
2016-06-17T03:30:09.025Z,0
2016-06-17T03:31:09.216Z,0
2016-06-17T03:32:09.235Z,0
2016-06-17T03:33:09.270Z,0
2016-06-17T03:34:08.976Z,0
2016-06-17T03:35:09.168Z,0
2016-06-17T03:36:09.186Z,0
2016-06-17T03:37:09.237Z,0
2016-06-17T03:38:09.397Z,0
2016-06-17T03:39:09.417Z,0
2016-06-17T03:40:09.153Z,0
2016-06-17T03:41:09.329Z,0
2016-06-17T03:42:09.504Z,0
2016-06-17T03:43:09.367Z,0
2016-06-17T03:44:09.402Z,0
2016-06-17T03:45:09.421Z,0
2016-06-17T03:46:09.456Z,0
2016-06-17T03:47:09.319Z,0
2016-06-17T03:48:09.651Z,0
2016-06-17T03:49:09.387Z,0
2016-06-17T03:50:09.719Z,0
2016-06-17T03:51:09.583Z,0
2016-06-17T03:52:09.617Z,0
2016-06-17T03:53:09.636Z,0
2016-06-17T03:54:09.671Z,0
2016-06-17T03:55:09.689Z,0
2016-06-17T03:56:09.584Z,0
2016-06-17T03:57:09.885Z,0
2016-06-17T03:58:09.622Z,0
2016-06-17T03:59:09.953Z,0
2016-06-17T04:00:09.973Z,0
2016-06-17T04:01:09.835Z,0
2016-06-17T04:02:09.871Z,0
2016-06-17T04:03:09.889Z,0
2016-06-17T04:04:10.080Z,0
2016-06-17T04:05:10.131Z,0
2016-06-17T04:06:09.963Z,0
2016-06-17T04:07:09.997Z,0
2016-06-17T04:08:10.016Z,0
2016-06-17T04:09:10.066Z,0
2016-06-17T04:10:09.913Z,0
2016-06-17T04:11:09.948Z,0
2016-06-17T04:12:10.283Z,0
2016-06-17T04:13:10.336Z,0
2016-06-17T04:14:10.078Z,0
2016-06-17T04:15:10.382Z,0
2016-06-17T04:16:10.403Z,0
2016-06-17T04:17:10.441Z,0
2016-06-17T04:18:10.460Z,0
2016-06-17T04:19:10.184Z,0
2016-06-17T04:20:10.516Z,0
2016-06-17T04:21:10.396Z,0
2016-06-17T04:22:10.573Z,0
2016-06-17T04:23:10.623Z,0
2016-06-17T04:24:10.611Z,0
2016-06-17T04:25:10.490Z,0
2016-06-17T04:26:10.368Z,0
2016-06-17T04:27:10.544Z,0
2016-06-17T04:28:10.423Z,0
2016-06-17T04:29:10.755Z,0
2016-06-17T04:30:10.634Z,0
2016-06-17T04:31:10.825Z,0
2016-06-17T04:32:10.830Z,5
2016-06-17T04:33:10.847Z,5
2016-06-17T04:34:10.883Z,5
2016-06-17T04:35:10.605Z,5
2016-06-17T04:36:10.781Z,5
2016-06-17T04:37:10.814Z,5
2016-06-17T04:38:10.678Z,5
2016-06-17T04:39:10.868Z,5
2016-06-17T04:40:10.888Z,5
2016-06-17T04:41:10.923Z,5
2016-06-17T04:42:11.097Z,5
2016-06-17T04:43:10.960Z,5
2016-06-17T04:44:10.979Z,5
2016-06-17T04:45:11.172Z,5
2016-06-17T04:46:11.206Z,5
2016-06-17T04:47:11.225Z,5
2016-06-17T04:48:11.243Z,5
2016-06-17T04:49:11.278Z,5
2016-06-17T04:50:11.156Z,5
2016-06-17T04:51:11.332Z,5
2016-06-17T04:52:11.196Z,5
2016-06-17T04:53:11.402Z,5
2016-06-17T04:54:11.405Z,10
2016-06-17T04:55:11.424Z,10
2016-06-17T04:56:11.460Z,10
2016-06-17T04:57:11.494Z,10
2016-06-17T04:58:11.513Z,10
2016-06-17T04:59:11.390Z,10
2016-06-17T05:00:11.410Z,10
2016-06-17T05:01:11.602Z,10
2016-06-17T05:02:11.620Z,10
2016-06-17T05:03:11.484Z,15
2016-06-17T05:04:11.690Z,15
2016-06-17T05:05:11.552Z,15
2016-06-17T05:06:11.728Z,15
2016-06-17T05:07:11.591Z,20
2016-06-17T05:08:11.626Z,20
2016-06-17T05:09:11.801Z,20
2016-06-17T05:10:11.835Z,25
2016-06-17T05:11:11.698Z,25
2016-06-17T05:12:11.573Z,25
2016-06-17T05:13:11.893Z,30
2016-06-17T05:14:11.627Z,35
2016-06-17T05:15:11.962Z,35
2016-06-17T05:16:11.996Z,40
2016-06-17T05:17:12.016Z,40
2016-06-17T05:18:12.035Z,45
2016-06-17T05:19:12.117Z,50
2016-06-17T05:20:12.136Z,50
2016-06-17T05:21:12.107Z,50
2016-06-17T05:22:11.982Z,50
2016-06-17T05:23:12.002Z,45
2016-06-17T05:24:12.181Z,45
2016-06-17T05:25:12.216Z,45
2016-06-17T05:26:14.656Z,45
2016-06-17T05:27:12.109Z,50
2016-06-17T05:28:12.335Z,50
2016-06-17T05:29:12.163Z,50
2016-06-17T05:30:12.373Z,50
2016-06-17T05:31:12.233Z,50
2016-06-17T05:32:12.412Z,50
2016-06-17T05:33:12.430Z,55
2016-06-17T05:34:12.466Z,60
2016-06-17T05:35:12.325Z,65
2016-06-17T05:36:12.344Z,65
2016-06-17T05:37:12.379Z,70
2016-06-17T05:38:12.397Z,70
2016-06-17T05:39:12.433Z,80
2016-06-17T05:40:12.467Z,80
2016-06-17T05:41:12.501Z,85
2016-06-17T05:42:12.505Z,85
2016-06-17T05:43:12.680Z,85
2016-06-17T05:44:12.715Z,85
2016-06-17T05:45:12.765Z,85
2016-06-17T05:46:12.613Z,85
2016-06-17T05:47:12.069Z,85
2016-06-17T05:48:12.854Z,85
2016-06-17T05:49:12.889Z,85
2016-06-17T05:50:12.877Z,85
2016-06-17T05:51:12.755Z,85
2016-06-17T05:52:12.774Z,85
2016-06-17T05:53:12.949Z,85
2016-06-17T05:54:12.843Z,85
2016-06-17T05:55:12.863Z,85
2016-06-17T05:56:12.881Z,85
2016-06-17T05:57:12.901Z,85
2016-06-17T05:58:12.920Z,85
2016-06-17T05:59:13.110Z,80
2016-06-17T06:00:13.162Z,75
2016-06-17T06:01:12.851Z,80
2016-06-17T06:02:13.199Z,80
2016-06-17T06:03:13.219Z,80
2016-06-17T06:04:13.269Z,80
2016-06-17T06:05:13.303Z,85
2016-06-17T06:06:13.290Z,90
2016-06-17T06:07:13.169Z,95
2016-06-17T06:08:13.345Z,95
2016-06-17T06:09:13.380Z,95
2016-06-17T06:10:13.257Z,100
2016-06-17T06:11:13.277Z,100
2016-06-17T06:12:13.468Z,105
2016-06-17T06:13:13.331Z,105
2016-06-17T06:14:13.351Z,110
2016-06-17T06:15:13.541Z,155
2016-06-17T06:16:13.247Z,150
2016-06-17T06:17:13.626Z,135
2016-06-17T06:18:13.489Z,310
2016-06-17T06:19:14.606Z,440
2016-06-17T06:20:13.668Z,420
2016-06-17T06:21:13.702Z,465
2016-06-17T06:22:13.582Z,345
2016-06-17T06:23:13.756Z,460
2016-06-17T06:24:13.478Z,410
2016-06-17T06:25:13.670Z,445
2016-06-17T06:26:13.688Z,450
2016-06-17T06:27:13.880Z,490
2016-06-17T06:28:13.899Z,460
2016-06-17T06:29:13.606Z,220
2016-06-17T06:30:13.676Z,425
2016-06-17T06:31:13.982Z,135
2016-06-17T06:32:14.021Z,155
2016-06-17T06:33:14.062Z,410
2016-06-17T06:34:13.929Z,455
2016-06-17T06:35:14.121Z,455
2016-06-17T06:36:14.142Z,470
2016-06-17T06:37:14.022Z,490
2016-06-17T06:38:14.057Z,505
2016-06-17T06:39:14.235Z,490
2016-06-17T06:40:14.255Z,460
2016-06-17T06:41:14.291Z,235
2016-06-17T06:42:14.013Z,280
2016-06-17T06:43:14.362Z,330
2016-06-17T06:44:13.912Z,225
2016-06-17T06:45:14.259Z,305
2016-06-17T06:46:14.435Z,380
2016-06-17T06:47:14.344Z,250
2016-06-17T06:48:14.489Z,305
2016-06-17T06:49:14.570Z,315
2016-06-17T06:50:14.573Z,435
2016-06-17T06:51:14.452Z,210
2016-06-17T06:52:14.611Z,200
2016-06-17T06:53:14.631Z,160
2016-06-17T06:54:14.666Z,140
2016-06-17T06:55:14.388Z,150
2016-06-17T06:56:14.720Z,155
2016-06-17T06:57:14.753Z,150
2016-06-17T06:58:14.648Z,150
2016-06-17T06:59:14.652Z,145
2016-06-17T07:00:14.702Z,140
2016-06-17T07:01:14.862Z,130
2016-06-17T07:02:14.912Z,120
2016-06-17T07:03:14.962Z,115
2016-06-17T07:04:14.652Z,115
2016-06-17T07:05:14.828Z,115
2016-06-17T07:06:15.020Z,120
2016-06-17T07:07:14.883Z,120
2016-06-17T07:08:15.073Z,120
2016-06-17T07:09:15.123Z,125
2016-06-17T07:10:14.970Z,115
2016-06-17T07:11:15.162Z,95
2016-06-17T07:12:15.056Z,95
2016-06-17T07:13:15.059Z,105
2016-06-17T07:14:15.095Z,105
2016-06-17T07:15:15.129Z,100
2016-06-17T07:16:15.304Z,95
2016-06-17T07:17:15.198Z,95
2016-06-17T07:18:15.359Z,85
2016-06-17T07:19:15.392Z,80
2016-06-17T07:20:15.272Z,85
2016-06-17T07:21:15.461Z,85
2016-06-17T07:22:15.325Z,90
2016-06-17T07:23:15.516Z,135
2016-06-17T07:24:15.380Z,100
2016-06-17T07:25:15.414Z,60
2016-06-17T07:26:15.589Z,55
2016-06-17T07:27:15.467Z,50
2016-06-17T07:28:15.643Z,50
2016-06-17T07:29:15.756Z,45
2016-06-17T07:30:15.727Z,45
2016-06-17T07:31:15.747Z,50
2016-06-17T07:32:15.624Z,50
2016-06-17T07:33:15.800Z,50
2016-06-17T07:34:15.695Z,50
2016-06-17T07:35:15.855Z,50
2016-06-17T07:36:15.889Z,50
2016-06-17T07:37:15.924Z,55
2016-06-17T07:38:15.942Z,60
2016-06-17T07:39:15.821Z,70
2016-06-17T07:40:15.996Z,75
2016-06-17T07:41:15.906Z,90
2016-06-17T07:42:16.051Z,100
2016-06-17T07:43:15.928Z,100
2016-06-17T07:44:16.104Z,100
2016-06-17T07:45:16.030Z,105
2016-06-17T07:46:16.017Z,90
2016-06-17T07:47:16.052Z,85
2016-06-17T07:48:16.227Z,80
2016-06-17T07:49:16.122Z,80
2016-06-17T07:50:16.140Z,90
2016-06-17T07:51:16.378Z,110
2016-06-17T07:52:16.351Z,105
2016-06-17T07:53:16.073Z,100
2016-06-17T07:54:16.420Z,95
2016-06-17T07:55:16.454Z,95
2016-06-17T07:56:16.490Z,90
2016-06-17T07:57:16.368Z,90
2016-06-17T07:58:16.575Z,85
2016-06-17T07:59:16.562Z,80
2016-06-17T08:04:55.396Z,80
2016-06-17T08:05:50.681Z,85
2016-06-17T08:06:49.934Z,85
2016-06-17T08:07:50.687Z,90
2016-06-17T08:08:50.363Z,95
2016-06-17T08:09:50.023Z,95
2016-06-17T08:10:49.433Z,95
2016-06-17T08:11:49.515Z,95
2016-06-17T08:12:49.501Z,95
2016-06-17T08:13:49.521Z,90
2016-06-17T08:14:49.524Z,90
2016-06-17T08:15:50.168Z,90
2016-06-17T08:16:50.218Z,95
2016-06-17T08:17:49.629Z,95
2016-06-17T08:18:50.273Z,100
2016-06-17T08:19:49.698Z,100
2016-06-17T08:20:49.701Z,95
2016-06-17T08:21:49.736Z,95
2016-06-17T08:22:49.771Z,100
2016-06-17T08:23:49.806Z,105
2016-06-17T08:24:49.856Z,105
2016-06-17T08:25:49.828Z,105
2016-06-17T08:26:49.878Z,110
2016-06-17T08:27:50.757Z,110
2016-06-17T08:28:50.557Z,115
2016-06-17T08:29:49.952Z,115
2016-06-17T08:30:50.002Z,115
2016-06-17T08:31:50.037Z,115
2016-06-17T08:32:50.432Z,115
2016-06-17T08:33:50.747Z,115
2016-06-17T08:34:50.735Z,115
2016-06-17T08:35:50.175Z,115
2016-06-17T08:36:50.163Z,115
2016-06-17T08:37:50.199Z,120
2016-06-17T08:38:50.217Z,120
2016-06-17T08:39:50.893Z,120
2016-06-17T08:40:50.287Z,125
2016-06-17T08:41:50.321Z,135
2016-06-17T08:42:50.950Z,140
2016-06-17T08:43:51.000Z,145
2016-06-17T08:44:32.109Z,180
2016-06-17T08:45:33.379Z,170
2016-06-17T08:46:31.538Z,150
2016-06-17T08:47:32.215Z,130
2016-06-17T08:48:31.593Z,115
2016-06-17T08:49:32.238Z,110
2016-06-17T08:50:31.662Z,105
2016-06-17T08:51:32.307Z,95
2016-06-17T08:52:31.717Z,90
2016-06-17T08:53:31.737Z,90
2016-06-17T08:54:31.770Z,85
2016-06-17T08:55:31.821Z,90
2016-06-17T08:56:31.825Z,95
2016-06-17T08:57:31.859Z,95
2016-06-17T08:58:31.896Z,95
2016-06-17T08:59:31.913Z,95
2016-06-17T09:00:33.214Z,95
2016-06-17T09:01:31.967Z,90
2016-06-17T09:02:32.627Z,95
2016-06-17T09:03:32.038Z,100
2016-06-17T09:04:32.072Z,95
2016-06-17T09:05:32.716Z,95
2016-06-17T09:06:32.110Z,95
2016-06-17T09:07:32.754Z,100
2016-06-17T09:08:32.180Z,110
2016-06-17T09:16:32.376Z,85
2016-06-17T09:17:32.380Z,80
2016-06-17T09:24:29.504Z,75
2016-06-17T09:25:29.553Z,75
2016-06-17T09:26:29.573Z,75
2016-06-17T09:27:30.233Z,75
2016-06-17T09:28:31.580Z,80
2016-06-17T09:29:29.647Z,85
2016-06-17T09:30:29.681Z,100
2016-06-17T09:31:30.434Z,110
2016-06-17T09:32:29.766Z,115
2016-06-17T09:33:31.036Z,120
2016-06-17T09:34:29.804Z,120
2016-06-17T09:35:29.839Z,115
2016-06-17T09:36:29.874Z,115
2016-06-17T09:37:29.892Z,120
2016-06-17T09:38:29.928Z,115
2016-06-17T09:39:29.978Z,120
2016-06-17T09:40:30.622Z,130
2016-06-17T09:41:30.018Z,135
2016-06-17T09:42:30.037Z,145
2016-06-17T09:43:30.089Z,165
2016-06-17T09:44:30.094Z,170
2016-06-17T09:45:30.146Z,185
2016-06-17T09:46:30.791Z,210
2016-06-17T09:47:30.810Z,215
2016-06-17T09:48:30.235Z,220
2016-06-17T09:49:30.881Z,190
2016-06-17T09:50:30.274Z,165
2016-06-17T09:51:30.966Z,150
2016-06-17T09:52:30.344Z,135
2016-06-17T09:53:30.364Z,110
2016-06-17T09:54:30.413Z,85
2016-06-17T09:55:31.027Z,60
2016-06-17T09:56:30.436Z,50
2016-06-17T09:57:30.470Z,40
2016-06-17T09:58:31.165Z,35
2016-06-17T09:59:30.546Z,35
2016-06-17T10:00:30.582Z,40
2016-06-17T10:01:31.245Z,50
2016-06-17T10:02:32.594Z,60
2016-06-17T10:03:31.896Z,65
2016-06-17T10:04:31.338Z,70
2016-06-17T10:05:30.733Z,75
2016-06-17T10:06:30.753Z,75
2016-06-17T10:07:30.788Z,80
2016-06-17T10:08:30.807Z,85
2016-06-17T10:09:30.843Z,90
2016-06-17T10:10:31.487Z,95
2016-06-17T10:11:31.554Z,105
2016-06-17T10:12:30.932Z,110
2016-06-17T10:13:30.952Z,110
2016-06-17T10:14:30.986Z,115
2016-06-17T10:15:31.631Z,105
2016-06-17T10:16:31.042Z,105
2016-06-17T10:17:31.077Z,100
2016-06-17T10:18:31.128Z,95
2016-06-17T10:19:31.132Z,105
2016-06-17T10:20:31.214Z,120
2016-06-17T10:21:32.452Z,135
2016-06-17T10:22:31.863Z,145
2016-06-17T10:23:32.507Z,150
2016-06-17T10:24:31.933Z,150
2016-06-17T10:25:31.311Z,150
2016-06-17T10:26:31.361Z,145
2016-06-17T10:27:31.396Z,135
2016-06-17T10:28:31.400Z,130
2016-06-17T10:29:31.419Z,125
2016-06-17T10:30:31.469Z,120
2016-06-17T10:31:31.504Z,120
2016-06-17T10:32:31.523Z,120
2016-06-17T10:33:31.541Z,120
2016-06-17T10:34:31.576Z,125
2016-06-17T10:35:32.846Z,130
2016-06-17T10:36:31.630Z,130
2016-06-17T10:37:31.650Z,130
2016-06-17T10:38:31.684Z,130
2016-06-17T10:39:31.719Z,135
2016-06-17T10:40:32.363Z,130
2016-06-17T10:41:31.772Z,135
2016-06-17T10:42:32.433Z,135
2016-06-17T10:43:31.843Z,130
2016-06-17T10:44:31.861Z,125
2016-06-17T10:45:31.911Z,125
2016-06-17T10:46:32.540Z,125
2016-06-17T10:47:31.965Z,125
2016-06-17T10:48:31.968Z,125
2016-06-17T10:49:32.020Z,125
2016-06-17T10:50:32.071Z,130
2016-06-17T10:51:32.075Z,140
2016-06-17T10:52:32.095Z,150
2016-06-17T10:53:32.130Z,150
2016-06-17T10:54:32.775Z,165
2016-06-17T10:55:32.185Z,185
2016-06-17T10:56:32.219Z,185
2016-06-17T10:57:34.128Z,175
2016-06-17T10:58:32.897Z,165
2016-06-17T10:59:32.307Z,145
2016-06-17T11:00:32.952Z,140
2016-06-17T11:01:32.377Z,150
2016-06-17T11:02:32.396Z,155
2016-06-17T11:03:32.430Z,155
2016-06-17T11:04:32.449Z,135
2016-06-17T11:05:32.501Z,115
2016-06-17T11:06:33.128Z,95
2016-06-17T11:07:32.535Z,80
2016-06-17T11:08:33.835Z,60
2016-06-17T11:09:33.212Z,55
2016-06-17T11:10:33.231Z,55
2016-06-17T11:11:33.265Z,50
2016-06-17T11:12:32.705Z,45
2016-06-17T11:13:33.333Z,40
2016-06-17T11:14:33.352Z,35
2016-06-17T11:15:33.371Z,35
2016-06-17T11:16:33.421Z,35
2016-06-17T11:17:32.831Z,40
2016-06-17T11:18:32.849Z,40
2016-06-17T11:19:32.869Z,40
2016-06-17T11:20:32.920Z,40
2016-06-17T11:21:33.578Z,40
2016-06-17T11:22:34.192Z,45
2016-06-17T11:23:33.617Z,45
2016-06-17T11:24:33.636Z,45
2016-06-17T11:25:33.078Z,50
2016-06-17T11:26:33.065Z,55
2016-06-17T11:27:33.740Z,60
2016-06-17T11:28:33.134Z,60
2016-06-17T11:29:33.200Z,65
2016-06-17T11:30:33.188Z,70
2016-06-17T11:31:33.223Z,75
2016-06-17T11:32:33.241Z,80
2016-06-17T11:33:33.918Z,85
2016-06-17T11:34:33.296Z,85
2016-06-17T11:35:33.362Z,90
2016-06-17T11:36:33.991Z,95
2016-06-17T11:37:34.009Z,100
2016-06-17T11:38:33.419Z,105
2016-06-17T11:39:33.455Z,115
2016-06-17T11:40:33.472Z,120
2016-06-17T11:41:34.742Z,125
2016-06-17T11:42:33.556Z,130
2016-06-17T11:43:34.825Z,135
2016-06-17T11:44:34.235Z,150
2016-06-17T11:45:33.629Z,155
2016-06-17T11:46:33.648Z,150
2016-06-17T11:47:33.743Z,145
2016-06-17T11:48:33.700Z,140
2016-06-17T11:49:33.735Z,135
2016-06-17T11:50:34.394Z,130
2016-06-17T11:51:34.414Z,125
2016-06-17T11:52:34.448Z,125
2016-06-17T11:53:33.857Z,125
2016-06-17T11:54:34.502Z,125
2016-06-17T11:55:34.521Z,125
2016-06-17T11:56:33.946Z,125
2016-06-17T11:57:34.622Z,125
2016-06-17T11:58:34.016Z,120
2016-06-17T11:59:35.269Z,115
2016-06-17T12:00:34.663Z,110
2016-06-17T12:01:34.135Z,105
2016-06-17T12:02:34.733Z,105
2016-06-17T12:03:34.752Z,95
2016-06-17T12:04:34.787Z,95
2016-06-17T12:05:34.196Z,90
2016-06-17T12:06:34.278Z,85
2016-06-17T12:07:35.500Z,80
2016-06-17T12:08:34.285Z,70
2016-06-17T12:09:34.319Z,65
2016-06-17T12:10:34.339Z,55
2016-06-17T12:11:34.983Z,50
2016-06-17T12:12:34.392Z,45
2016-06-17T12:13:34.427Z,40
2016-06-17T12:14:34.462Z,40
2016-06-17T12:15:35.094Z,40
2016-06-17T12:16:34.538Z,40
2016-06-17T12:17:34.544Z,40
2016-06-17T12:18:34.582Z,40
2016-06-17T12:19:34.617Z,40
2016-06-17T12:20:35.483Z,40
2016-06-17T12:21:34.674Z,40
2016-06-17T12:22:34.710Z,40
2016-06-17T12:23:35.355Z,40
2016-06-17T12:24:34.781Z,45
2016-06-17T12:25:34.801Z,55
2016-06-17T12:26:35.492Z,75
2016-06-17T12:27:35.496Z,80
2016-06-17T12:28:34.922Z,90
2016-06-17T12:29:34.910Z,105
2016-06-17T12:30:34.976Z,115
2016-06-17T12:31:34.995Z,125
2016-06-17T12:32:35.013Z,135
2016-06-17T12:33:35.033Z,140
2016-06-17T12:34:36.287Z,140
2016-06-17T12:35:35.712Z,135
2016-06-17T12:36:35.762Z,130
2016-06-17T12:37:35.781Z,130
2016-06-17T12:38:35.190Z,145
2016-06-17T12:39:35.288Z,140
2016-06-17T12:40:35.886Z,130
2016-06-17T12:41:35.295Z,130
2016-06-17T12:42:35.314Z,130
2016-06-17T12:43:35.318Z,130
2016-06-17T12:44:35.352Z,125
2016-06-17T12:45:36.403Z,120
2016-06-17T12:46:36.046Z,115
2016-06-17T12:47:36.065Z,105
2016-06-17T12:48:35.460Z,95
2016-06-17T12:49:36.120Z,85
2016-06-17T12:50:35.529Z,75
2016-06-17T12:51:35.549Z,70
2016-06-17T12:52:36.208Z,65
2016-06-17T12:53:35.618Z,60
2016-06-17T12:54:35.637Z,75
2016-06-17T12:55:35.671Z,80
2016-06-17T12:56:35.706Z,85
2016-06-17T12:57:35.725Z,95
2016-06-17T12:58:35.760Z,110
2016-06-17T12:59:35.795Z,115
2016-06-17T13:00:36.438Z,120
2016-06-17T13:01:36.473Z,120
2016-06-17T13:02:35.868Z,115
2016-06-17T13:03:36.527Z,105
2016-06-17T13:04:36.656Z,90
2016-06-17T13:05:35.956Z,65
2016-06-17T13:06:35.990Z,45
2016-06-17T13:07:36.025Z,35
2016-06-17T13:08:36.669Z,30
2016-06-17T13:09:36.689Z,25
2016-06-17T13:10:36.098Z,25
2016-06-17T13:11:36.133Z,20
2016-06-17T13:12:36.152Z,20
2016-06-17T13:13:36.812Z,20
2016-06-17T13:14:36.222Z,20
2016-06-17T13:15:36.256Z,20
2016-06-17T13:16:36.275Z,20
2016-06-17T13:17:36.294Z,20
2016-06-17T13:18:36.361Z,20
2016-06-17T13:19:36.989Z,15
2016-06-17T13:20:36.493Z,15
2016-06-17T13:21:37.043Z,15
2016-06-17T13:22:37.062Z,15
2016-06-17T13:23:36.471Z,10
2016-06-17T13:24:37.757Z,10
2016-06-17T13:25:36.541Z,10
2016-06-17T13:26:36.592Z,10
2016-06-17T13:27:36.595Z,10
2016-06-17T13:28:37.255Z,10
2016-06-17T13:29:36.648Z,10
2016-06-17T13:30:37.293Z,15
2016-06-17T13:31:37.951Z,15
2016-06-17T13:32:37.362Z,15
2016-06-17T13:33:36.756Z,20
2016-06-17T13:34:36.791Z,20
2016-06-17T13:35:36.841Z,20
2016-06-17T13:36:37.469Z,20
2016-06-17T13:37:37.489Z,25
2016-06-17T13:38:37.539Z,25
2016-06-17T13:39:36.933Z,30
2016-06-17T13:40:36.968Z,30
2016-06-17T13:41:37.003Z,30
2016-06-17T13:42:37.021Z,35
2016-06-17T13:43:37.666Z,35
2016-06-17T13:44:37.700Z,40
2016-06-17T13:45:37.111Z,45
2016-06-17T13:46:37.175Z,50
2016-06-17T13:47:37.851Z,50
2016-06-17T13:48:37.199Z,55
2016-06-17T13:49:37.233Z,55
2016-06-17T13:50:37.253Z,60
2016-06-17T13:51:38.521Z,65
2016-06-17T13:52:37.321Z,65
2016-06-17T13:53:37.341Z,70
2016-06-17T13:54:37.985Z,75
2016-06-17T13:55:38.020Z,80
2016-06-17T13:56:41.039Z,85
2016-06-17T13:57:37.452Z,90
2016-06-17T13:58:37.488Z,95
2016-06-17T13:59:37.510Z,95
2016-06-17T14:00:37.547Z,100
2016-06-17T14:01:37.584Z,100
2016-06-17T14:02:38.228Z,105
2016-06-17T14:03:37.638Z,115
2016-06-17T14:04:37.674Z,115
2016-06-17T14:05:37.694Z,115
2016-06-17T14:06:37.713Z,120
2016-06-17T14:07:44.296Z,120
2016-06-17T14:08:37.784Z,120
2016-06-17T14:09:37.804Z,125
2016-06-17T14:10:37.839Z,125
2016-06-17T14:11:38.530Z,120
2016-06-17T14:12:37.893Z,125
2016-06-17T14:13:37.912Z,120
2016-06-17T14:14:37.962Z,120
2016-06-17T14:15:37.981Z,125
2016-06-17T14:16:37.999Z,125
2016-06-17T14:17:38.660Z,120
2016-06-17T14:18:38.054Z,120
2016-06-17T14:19:38.729Z,110
2016-06-17T14:20:38.123Z,115
2016-06-17T14:21:38.175Z,95
2016-06-17T14:22:38.177Z,85
2016-06-17T14:23:38.212Z,85
2016-06-17T14:24:38.232Z,80
2016-06-17T14:25:39.500Z,80
2016-06-17T14:26:38.300Z,80
2016-06-17T14:27:38.320Z,80
2016-06-17T14:28:38.354Z,80
2016-06-17T14:29:38.373Z,85
2016-06-17T14:30:38.409Z,85
2016-06-17T14:31:38.428Z,85
2016-06-17T14:32:38.511Z,80
2016-06-17T14:33:38.495Z,80